sensor_id;sensor_type;location;lat;lon;timestamp;P1;durP1;ratioP1;P2;durP2;ratioP2
60243;SDS011;46106;51.468;5.814;2023-03-14T00:00:33;8.32;;;1.58;;
60243;SDS011;46106;51.468;5.814;2023-03-14T00:02:59;8.88;;;1.70;;
60243;SDS011;46106;51.468;5.814;2023-03-14T00:05:25;12.20;;;1.80;;
60243;SDS011;46106;51.468;5.814;2023-03-14T00:07:50;9.18;;;1.30;;
60243;SDS011;46106;51.468;5.814;2023-03-14T00:10:16;5.13;;;1.00;;
60243;SDS011;46106;51.468;5.814;2023-03-14T00:12:42;6.88;;;2.03;;
60243;SDS011;46106;51.468;5.814;2023-03-14T00:15:09;6.40;;;1.50;;
60243;SDS011;46106;51.468;5.814;2023-03-14T00:17:35;7.97;;;1.35;;
60243;SDS011;46106;51.468;5.814;2023-03-14T00:20:02;5.55;;;1.15;;
60243;SDS011;46106;51.468;5.814;2023-03-14T00:22:34;11.70;;;1.67;;
60243;SDS011;46106;51.468;5.814;2023-03-14T00:25:00;11.80;;;1.08;;
60243;SDS011;46106;51.468;5.814;2023-03-14T00:27:26;9.27;;;1.52;;
60243;SDS011;46106;51.468;5.814;2023-03-14T00:29:51;4.57;;;1.08;;
60243;SDS011;46106;51.468;5.814;2023-03-14T00:32:17;5.75;;;0.95;;
60243;SDS011;46106;51.468;5.814;2023-03-14T00:34:42;7.05;;;0.90;;
60243;SDS011;46106;51.468;5.814;2023-03-14T00:37:08;6.97;;;0.80;;
60243;SDS011;46106;51.468;5.814;2023-03-14T00:39:33;10.55;;;1.15;;
60243;SDS011;46106;51.468;5.814;2023-03-14T00:41:59;9.45;;;0.90;;
60243;SDS011;46106;51.468;5.814;2023-03-14T00:44:24;4.45;;;0.70;;
60243;SDS011;46106;51.468;5.814;2023-03-14T00:46:50;6.78;;;0.93;;
60243;SDS011;46106;51.468;5.814;2023-03-14T00:49:15;5.40;;;0.60;;
60243;SDS011;46106;51.468;5.814;2023-03-14T00:51:41;9.82;;;1.20;;
60243;SDS011;46106;51.468;5.814;2023-03-14T00:54:06;4.70;;;0.70;;
60243;SDS011;46106;51.468;5.814;2023-03-14T00:56:32;4.32;;;0.95;;
60243;SDS011;46106;51.468;5.814;2023-03-14T00:58:57;7.13;;;1.00;;
60243;SDS011;46106;51.468;5.814;2023-03-14T01:01:23;9.27;;;1.15;;
60243;SDS011;46106;51.468;5.814;2023-03-14T01:03:52;5.53;;;0.98;;
60243;SDS011;46106;51.468;5.814;2023-03-14T01:06:22;4.38;;;0.85;;
60243;SDS011;46106;51.468;5.814;2023-03-14T01:08:52;5.72;;;0.80;;
60243;SDS011;46106;51.468;5.814;2023-03-14T01:11:22;3.88;;;0.80;;
60243;SDS011;46106;51.468;5.814;2023-03-14T01:13:52;7.28;;;0.73;;
60243;SDS011;46106;51.468;5.814;2023-03-14T01:16:19;10.57;;;0.93;;
60243;SDS011;46106;51.468;5.814;2023-03-14T01:18:46;8.13;;;0.82;;
60243;SDS011;46106;51.468;5.814;2023-03-14T01:21:22;6.65;;;0.70;;
60243;SDS011;46106;51.468;5.814;2023-03-14T01:23:53;7.80;;;0.70;;
60243;SDS011;46106;51.468;5.814;2023-03-14T01:26:21;3.60;;;0.80;;
60243;SDS011;46106;51.468;5.814;2023-03-14T01:28:53;5.18;;;0.68;;
60243;SDS011;46106;51.468;5.814;2023-03-14T01:31:19;5.63;;;0.85;;
60243;SDS011;46106;51.468;5.814;2023-03-14T01:33:45;5.30;;;0.68;;
60243;SDS011;46106;51.468;5.814;2023-03-14T01:36:11;5.38;;;0.65;;
60243;SDS011;46106;51.468;5.814;2023-03-14T01:38:38;6.18;;;0.60;;
60243;SDS011;46106;51.468;5.814;2023-03-14T01:41:05;7.07;;;1.10;;
60243;SDS011;46106;51.468;5.814;2023-03-14T01:43:31;5.80;;;0.90;;
60243;SDS011;46106;51.468;5.814;2023-03-14T01:48:44;4.22;;;0.93;;
60243;SDS011;46106;51.468;5.814;2023-03-14T01:51:28;4.10;;;0.80;;
60243;SDS011;46106;51.468;5.814;2023-03-14T01:54:01;9.63;;;1.05;;
60243;SDS011;46106;51.468;5.814;2023-03-14T01:56:31;4.00;;;0.80;;
60243;SDS011;46106;51.468;5.814;2023-03-14T01:58:57;4.55;;;0.75;;
60243;SDS011;46106;51.468;5.814;2023-03-14T02:01:24;6.20;;;0.70;;
60243;SDS011;46106;51.468;5.814;2023-03-14T02:04:02;6.32;;;0.82;;
60243;SDS011;46106;51.468;5.814;2023-03-14T02:06:40;5.85;;;0.90;;
60243;SDS011;46106;51.468;5.814;2023-03-14T02:09:14;5.15;;;1.02;;
60243;SDS011;46106;51.468;5.814;2023-03-14T02:11:40;7.35;;;1.00;;
60243;SDS011;46106;51.468;5.814;2023-03-14T02:14:06;7.47;;;1.23;;
60243;SDS011;46106;51.468;5.814;2023-03-14T02:16:35;7.97;;;1.08;;
60243;SDS011;46106;51.468;5.814;2023-03-14T02:19:00;6.00;;;0.93;;
60243;SDS011;46106;51.468;5.814;2023-03-14T02:24:53;5.40;;;0.80;;
60243;SDS011;46106;51.468;5.814;2023-03-14T02:27:32;6.90;;;1.05;;
60243;SDS011;46106;51.468;5.814;2023-03-14T02:29:59;7.82;;;1.00;;
60243;SDS011;46106;51.468;5.814;2023-03-14T02:32:28;6.50;;;1.33;;
60243;SDS011;46106;51.468;5.814;2023-03-14T02:34:58;6.35;;;1.02;;
60243;SDS011;46106;51.468;5.814;2023-03-14T02:37:31;10.23;;;0.90;;
60243;SDS011;46106;51.468;5.814;2023-03-14T02:40:04;6.65;;;1.10;;
60243;SDS011;46106;51.468;5.814;2023-03-14T02:42:30;9.70;;;1.10;;
60243;SDS011;46106;51.468;5.814;2023-03-14T02:47:33;9.27;;;0.88;;
60243;SDS011;46106;51.468;5.814;2023-03-14T02:50:04;9.82;;;1.85;;
60243;SDS011;46106;51.468;5.814;2023-03-14T02:52:33;6.70;;;1.10;;
60243;SDS011;46106;51.468;5.814;2023-03-14T02:54:59;8.65;;;1.00;;
60243;SDS011;46106;51.468;5.814;2023-03-14T02:57:24;7.90;;;1.00;;
60243;SDS011;46106;51.468;5.814;2023-03-14T02:59:50;5.72;;;0.90;;
60243;SDS011;46106;51.468;5.814;2023-03-14T03:02:15;8.65;;;1.17;;
60243;SDS011;46106;51.468;5.814;2023-03-14T03:04:41;7.65;;;1.30;;
60243;SDS011;46106;51.468;5.814;2023-03-14T03:07:07;9.57;;;1.30;;
60243;SDS011;46106;51.468;5.814;2023-03-14T03:09:32;13.20;;;1.55;;
60243;SDS011;46106;51.468;5.814;2023-03-14T03:11:57;9.18;;;1.05;;
60243;SDS011;46106;51.468;5.814;2023-03-14T03:14:23;9.43;;;1.10;;
60243;SDS011;46106;51.468;5.814;2023-03-14T03:16:48;8.43;;;1.55;;
60243;SDS011;46106;51.468;5.814;2023-03-14T03:19:14;15.88;;;1.98;;
60243;SDS011;46106;51.468;5.814;2023-03-14T03:21:41;9.52;;;1.50;;
60243;SDS011;46106;51.468;5.814;2023-03-14T03:24:06;7.65;;;1.27;;
60243;SDS011;46106;51.468;5.814;2023-03-14T03:26:33;9.23;;;1.25;;
60243;SDS011;46106;51.468;5.814;2023-03-14T03:28:59;8.23;;;1.00;;
60243;SDS011;46106;51.468;5.814;2023-03-14T03:31:25;10.13;;;1.25;;
60243;SDS011;46106;51.468;5.814;2023-03-14T03:33:50;8.27;;;1.10;;
60243;SDS011;46106;51.468;5.814;2023-03-14T03:36:17;14.13;;;1.25;;
60243;SDS011;46106;51.468;5.814;2023-03-14T03:38:46;7.55;;;1.20;;
60243;SDS011;46106;51.468;5.814;2023-03-14T03:41:11;8.40;;;1.15;;
60243;SDS011;46106;51.468;5.814;2023-03-14T03:43:37;6.50;;;0.98;;
60243;SDS011;46106;51.468;5.814;2023-03-14T03:46:06;9.45;;;1.20;;
60243;SDS011;46106;51.468;5.814;2023-03-14T03:48:32;8.07;;;0.90;;
60243;SDS011;46106;51.468;5.814;2023-03-14T03:50:59;8.43;;;2.08;;
60243;SDS011;46106;51.468;5.814;2023-03-14T03:53:24;5.38;;;0.93;;
60243;SDS011;46106;51.468;5.814;2023-03-14T03:55:50;6.20;;;0.90;;
60243;SDS011;46106;51.468;5.814;2023-03-14T03:58:15;2.03;;;0.63;;
60243;SDS011;46106;51.468;5.814;2023-03-14T04:00:41;15.07;;;1.58;;
60243;SDS011;46106;51.468;5.814;2023-03-14T04:03:06;10.55;;;0.88;;
60243;SDS011;46106;51.468;5.814;2023-03-14T04:05:32;6.07;;;1.60;;
60243;SDS011;46106;51.468;5.814;2023-03-14T04:08:00;5.70;;;0.65;;
60243;SDS011;46106;51.468;5.814;2023-03-14T04:10:26;5.05;;;0.90;;
60243;SDS011;46106;51.468;5.814;2023-03-14T04:12:51;5.40;;;0.70;;
60243;SDS011;46106;51.468;5.814;2023-03-14T04:15:17;6.35;;;0.77;;
60243;SDS011;46106;51.468;5.814;2023-03-14T04:17:43;4.75;;;1.00;;
60243;SDS011;46106;51.468;5.814;2023-03-14T04:20:09;3.35;;;0.77;;
60243;SDS011;46106;51.468;5.814;2023-03-14T04:22:36;7.35;;;0.80;;
60243;SDS011;46106;51.468;5.814;2023-03-14T04:25:02;4.28;;;0.60;;
60243;SDS011;46106;51.468;5.814;2023-03-14T04:27:28;4.97;;;0.40;;
60243;SDS011;46106;51.468;5.814;2023-03-14T04:29:54;5.40;;;0.60;;
60243;SDS011;46106;51.468;5.814;2023-03-14T04:32:19;2.78;;;0.50;;
60243;SDS011;46106;51.468;5.814;2023-03-14T04:34:45;8.05;;;0.50;;
60243;SDS011;46106;51.468;5.814;2023-03-14T04:37:11;5.45;;;0.57;;
60243;SDS011;46106;51.468;5.814;2023-03-14T04:39:36;1.42;;;0.32;;
60243;SDS011;46106;51.468;5.814;2023-03-14T04:42:02;3.42;;;0.50;;
60243;SDS011;46106;51.468;5.814;2023-03-14T04:44:28;4.10;;;0.60;;
60243;SDS011;46106;51.468;5.814;2023-03-14T04:46:53;1.33;;;0.30;;
60243;SDS011;46106;51.468;5.814;2023-03-14T04:49:22;2.53;;;0.45;;
60243;SDS011;46106;51.468;5.814;2023-03-14T04:51:48;2.00;;;0.40;;
60243;SDS011;46106;51.468;5.814;2023-03-14T04:54:16;3.50;;;0.65;;
60243;SDS011;46106;51.468;5.814;2023-03-14T04:56:41;1.88;;;0.55;;
60243;SDS011;46106;51.468;5.814;2023-03-14T04:59:07;2.42;;;0.70;;
60243;SDS011;46106;51.468;5.814;2023-03-14T05:01:33;5.05;;;0.80;;
60243;SDS011;46106;51.468;5.814;2023-03-14T05:03:59;3.53;;;0.63;;
60243;SDS011;46106;51.468;5.814;2023-03-14T05:06:24;4.50;;;1.10;;
60243;SDS011;46106;51.468;5.814;2023-03-14T05:08:50;2.45;;;0.90;;
60243;SDS011;46106;51.468;5.814;2023-03-14T05:11:15;3.58;;;0.90;;
60243;SDS011;46106;51.468;5.814;2023-03-14T05:13:40;2.97;;;0.65;;
60243;SDS011;46106;51.468;5.814;2023-03-14T05:16:06;2.05;;;0.50;;
60243;SDS011;46106;51.468;5.814;2023-03-14T05:18:34;5.07;;;0.70;;
60243;SDS011;46106;51.468;5.814;2023-03-14T05:20:59;2.42;;;0.85;;
60243;SDS011;46106;51.468;5.814;2023-03-14T05:23:25;3.60;;;1.15;;
60243;SDS011;46106;51.468;5.814;2023-03-14T05:25:50;7.82;;;1.00;;
60243;SDS011;46106;51.468;5.814;2023-03-14T05:28:16;6.45;;;1.00;;
60243;SDS011;46106;51.468;5.814;2023-03-14T05:30:41;5.28;;;1.20;;
60243;SDS011;46106;51.468;5.814;2023-03-14T05:33:07;4.50;;;1.40;;
60243;SDS011;46106;51.468;5.814;2023-03-14T05:35:32;3.95;;;1.27;;
60243;SDS011;46106;51.468;5.814;2023-03-14T05:37:58;6.10;;;2.08;;
60243;SDS011;46106;51.468;5.814;2023-03-14T05:40:23;6.07;;;1.50;;
60243;SDS011;46106;51.468;5.814;2023-03-14T05:42:48;10.52;;;1.92;;
60243;SDS011;46106;51.468;5.814;2023-03-14T05:45:14;4.90;;;1.50;;
60243;SDS011;46106;51.468;5.814;2023-03-14T05:47:39;10.65;;;2.33;;
60243;SDS011;46106;51.468;5.814;2023-03-14T05:50:05;6.05;;;2.00;;
60243;SDS011;46106;51.468;5.814;2023-03-14T05:52:31;6.32;;;1.88;;
60243;SDS011;46106;51.468;5.814;2023-03-14T05:54:56;4.75;;;1.92;;
60243;SDS011;46106;51.468;5.814;2023-03-14T05:57:22;5.80;;;2.13;;
60243;SDS011;46106;51.468;5.814;2023-03-14T05:59:47;4.38;;;1.60;;
60243;SDS011;46106;51.468;5.814;2023-03-14T06:02:13;5.78;;;2.40;;
60243;SDS011;46106;51.468;5.814;2023-03-14T06:04:38;6.10;;;2.47;;
60243;SDS011;46106;51.468;5.814;2023-03-14T06:07:04;9.30;;;2.05;;
60243;SDS011;46106;51.468;5.814;2023-03-14T06:09:29;8.30;;;2.28;;
60243;SDS011;46106;51.468;5.814;2023-03-14T06:11:54;6.57;;;2.08;;
60243;SDS011;46106;51.468;5.814;2023-03-14T06:14:20;12.80;;;2.40;;
60243;SDS011;46106;51.468;5.814;2023-03-14T06:16:46;6.13;;;2.30;;
60243;SDS011;46106;51.468;5.814;2023-03-14T06:19:14;5.75;;;1.85;;
60243;SDS011;46106;51.468;5.814;2023-03-14T06:21:39;8.52;;;2.70;;
60243;SDS011;46106;51.468;5.814;2023-03-14T06:24:05;10.85;;;2.70;;
60243;SDS011;46106;51.468;5.814;2023-03-14T06:26:31;7.82;;;2.65;;
60243;SDS011;46106;51.468;5.814;2023-03-14T06:28:56;3.95;;;1.80;;
60243;SDS011;46106;51.468;5.814;2023-03-14T06:31:22;8.30;;;2.53;;
60243;SDS011;46106;51.468;5.814;2023-03-14T06:33:47;4.53;;;2.28;;
60243;SDS011;46106;51.468;5.814;2023-03-14T06:36:13;9.68;;;2.60;;
60243;SDS011;46106;51.468;5.814;2023-03-14T06:38:38;10.93;;;3.03;;
60243;SDS011;46106;51.468;5.814;2023-03-14T06:41:04;5.25;;;2.17;;
60243;SDS011;46106;51.468;5.814;2023-03-14T06:43:30;11.82;;;2.95;;
60243;SDS011;46106;51.468;5.814;2023-03-14T06:45:56;7.85;;;2.38;;
60243;SDS011;46106;51.468;5.814;2023-03-14T06:48:21;9.73;;;3.00;;
60243;SDS011;46106;51.468;5.814;2023-03-14T06:50:50;5.13;;;2.53;;
60243;SDS011;46106;51.468;5.814;2023-03-14T06:53:15;7.40;;;2.90;;
60243;SDS011;46106;51.468;5.814;2023-03-14T06:55:41;6.38;;;2.80;;
60243;SDS011;46106;51.468;5.814;2023-03-14T06:58:08;7.57;;;3.00;;
60243;SDS011;46106;51.468;5.814;2023-03-14T07:00:33;4.82;;;2.75;;
60243;SDS011;46106;51.468;5.814;2023-03-14T07:03:00;7.43;;;2.78;;
60243;SDS011;46106;51.468;5.814;2023-03-14T07:05:25;4.90;;;2.92;;
60243;SDS011;46106;51.468;5.814;2023-03-14T07:07:50;5.45;;;2.97;;
60243;SDS011;46106;51.468;5.814;2023-03-14T07:10:16;3.78;;;3.00;;
60243;SDS011;46106;51.468;5.814;2023-03-14T07:12:42;8.85;;;3.10;;
60243;SDS011;46106;51.468;5.814;2023-03-14T07:15:07;7.80;;;2.92;;
60243;SDS011;46106;51.468;5.814;2023-03-14T07:17:33;5.75;;;2.80;;
60243;SDS011;46106;51.468;5.814;2023-03-14T07:19:59;3.35;;;3.05;;
60243;SDS011;46106;51.468;5.814;2023-03-14T07:22:25;4.43;;;2.92;;
60243;SDS011;46106;51.468;5.814;2023-03-14T07:24:50;5.70;;;3.53;;
60243;SDS011;46106;51.468;5.814;2023-03-14T07:27:16;6.40;;;3.70;;
60243;SDS011;46106;51.468;5.814;2023-03-14T07:29:41;4.53;;;3.75;;
60243;SDS011;46106;51.468;5.814;2023-03-14T07:32:06;8.38;;;3.65;;
60243;SDS011;46106;51.468;5.814;2023-03-14T07:34:33;6.15;;;3.30;;
60243;SDS011;46106;51.468;5.814;2023-03-14T07:36:59;5.90;;;3.25;;
60243;SDS011;46106;51.468;5.814;2023-03-14T07:39:24;3.38;;;3.08;;
60243;SDS011;46106;51.468;5.814;2023-03-14T07:41:50;7.03;;;3.20;;
60243;SDS011;46106;51.468;5.814;2023-03-14T07:44:15;4.20;;;2.85;;
60243;SDS011;46106;51.468;5.814;2023-03-14T07:46:41;6.38;;;3.42;;
60243;SDS011;46106;51.468;5.814;2023-03-14T07:49:06;4.80;;;3.20;;
60243;SDS011;46106;51.468;5.814;2023-03-14T07:51:32;6.95;;;2.92;;
60243;SDS011;46106;51.468;5.814;2023-03-14T07:53:57;6.97;;;2.85;;
60243;SDS011;46106;51.468;5.814;2023-03-14T07:56:23;4.40;;;3.50;;
60243;SDS011;46106;51.468;5.814;2023-03-14T07:58:48;5.28;;;3.20;;
60243;SDS011;46106;51.468;5.814;2023-03-14T08:01:14;5.20;;;3.22;;
60243;SDS011;46106;51.468;5.814;2023-03-14T08:03:39;12.23;;;2.42;;
60243;SDS011;46106;51.468;5.814;2023-03-14T08:06:05;0.60;;;0.43;;
60243;SDS011;46106;51.468;5.814;2023-03-14T08:08:30;2.15;;;0.60;;
60243;SDS011;46106;51.468;5.814;2023-03-14T08:10:56;1.75;;;0.30;;
60243;SDS011;46106;51.468;5.814;2023-03-14T08:13:28;1.02;;;0.45;;
60243;SDS011;46106;51.468;5.814;2023-03-14T08:15:53;2.17;;;0.45;;
60243;SDS011;46106;51.468;5.814;2023-03-14T08:18:22;0.75;;;0.32;;
60243;SDS011;46106;51.468;5.814;2023-03-14T08:20:47;1.85;;;0.40;;
60243;SDS011;46106;51.468;5.814;2023-03-14T08:23:13;0.40;;;0.40;;
60243;SDS011;46106;51.468;5.814;2023-03-14T08:25:38;1.95;;;0.50;;
60243;SDS011;46106;51.468;5.814;2023-03-14T08:28:04;1.40;;;0.60;;
60243;SDS011;46106;51.468;5.814;2023-03-14T08:30:29;3.08;;;0.65;;
60243;SDS011;46106;51.468;5.814;2023-03-14T08:32:58;1.65;;;0.50;;
60243;SDS011;46106;51.468;5.814;2023-03-14T08:35:27;1.30;;;0.63;;
60243;SDS011;46106;51.468;5.814;2023-03-14T08:37:53;1.50;;;0.80;;
60243;SDS011;46106;51.468;5.814;2023-03-14T08:40:18;4.78;;;1.00;;
60243;SDS011;46106;51.468;5.814;2023-03-14T08:42:44;3.47;;;1.00;;
60243;SDS011;46106;51.468;5.814;2023-03-14T08:45:11;3.75;;;1.10;;
60243;SDS011;46106;51.468;5.814;2023-03-14T08:47:38;4.47;;;1.42;;
60243;SDS011;46106;51.468;5.814;2023-03-14T08:50:04;2.55;;;1.65;;
60243;SDS011;46106;51.468;5.814;2023-03-14T08:52:31;1.23;;;0.80;;
60243;SDS011;46106;51.468;5.814;2023-03-14T08:54:57;1.98;;;0.77;;
60243;SDS011;46106;51.468;5.814;2023-03-14T08:57:23;1.95;;;0.82;;
60243;SDS011;46106;51.468;5.814;2023-03-14T08:59:53;1.35;;;1.00;;
60243;SDS011;46106;51.468;5.814;2023-03-14T09:02:20;4.60;;;0.90;;
60243;SDS011;46106;51.468;5.814;2023-03-14T09:04:45;4.65;;;1.05;;
60243;SDS011;46106;51.468;5.814;2023-03-14T09:07:11;4.97;;;0.70;;
60243;SDS011;46106;51.468;5.814;2023-03-14T09:09:36;1.05;;;0.77;;
60243;SDS011;46106;51.468;5.814;2023-03-14T09:12:02;2.00;;;0.60;;
60243;SDS011;46106;51.468;5.814;2023-03-14T09:14:28;4.70;;;0.80;;
60243;SDS011;46106;51.468;5.814;2023-03-14T09:16:54;2.25;;;1.00;;
60243;SDS011;46106;51.468;5.814;2023-03-14T09:19:19;2.53;;;0.80;;
60243;SDS011;46106;51.468;5.814;2023-03-14T09:21:45;2.72;;;0.80;;
60243;SDS011;46106;51.468;5.814;2023-03-14T09:24:10;4.07;;;0.70;;
60243;SDS011;46106;51.468;5.814;2023-03-14T09:26:36;2.20;;;0.85;;
60243;SDS011;46106;51.468;5.814;2023-03-14T09:29:01;3.63;;;0.80;;
60243;SDS011;46106;51.468;5.814;2023-03-14T09:31:27;6.35;;;1.10;;
60243;SDS011;46106;51.468;5.814;2023-03-14T09:33:53;4.40;;;1.00;;
60243;SDS011;46106;51.468;5.814;2023-03-14T09:36:22;3.55;;;1.30;;
60243;SDS011;46106;51.468;5.814;2023-03-14T09:38:47;4.70;;;1.33;;
60243;SDS011;46106;51.468;5.814;2023-03-14T09:41:32;7.85;;;1.55;;
60243;SDS011;46106;51.468;5.814;2023-03-14T09:46:30;1.83;;;1.08;;
60243;SDS011;46106;51.468;5.814;2023-03-14T09:48:59;1.92;;;1.35;;
60243;SDS011;46106;51.468;5.814;2023-03-14T09:51:25;4.70;;;1.83;;
60243;SDS011;46106;51.468;5.814;2023-03-14T09:53:51;7.68;;;2.17;;
60243;SDS011;46106;51.468;5.814;2023-03-14T09:56:21;8.07;;;2.58;;
60243;SDS011;46106;51.468;5.814;2023-03-14T09:58:54;3.70;;;1.38;;
60243;SDS011;46106;51.468;5.814;2023-03-14T10:01:25;4.40;;;0.60;;
60243;SDS011;46106;51.468;5.814;2023-03-14T10:03:56;2.65;;;0.35;;
60243;SDS011;46106;51.468;5.814;2023-03-14T10:06:26;3.40;;;0.40;;
60243;SDS011;46106;51.468;5.814;2023-03-14T10:08:53;1.58;;;0.55;;
60243;SDS011;46106;51.468;5.814;2023-03-14T10:11:19;0.60;;;0.30;;
60243;SDS011;46106;51.468;5.814;2023-03-14T10:13:50;2.70;;;0.32;;
60243;SDS011;46106;51.468;5.814;2023-03-14T10:16:30;0.43;;;0.43;;
60243;SDS011;46106;51.468;5.814;2023-03-14T10:19:01;5.18;;;0.57;;
60243;SDS011;46106;51.468;5.814;2023-03-14T10:21:30;2.15;;;1.00;;
60243;SDS011;46106;51.468;5.814;2023-03-14T10:24:20;1.55;;;0.50;;
60243;SDS011;46106;51.468;5.814;2023-03-14T10:26:48;2.83;;;0.63;;
60243;SDS011;46106;51.468;5.814;2023-03-14T10:29:15;5.95;;;0.30;;
60243;SDS011;46106;51.468;5.814;2023-03-14T10:34:43;0.93;;;0.50;;
60243;SDS011;46106;51.468;5.814;2023-03-14T10:39:52;1.77;;;0.55;;
60243;SDS011;46106;51.468;5.814;2023-03-14T10:42:29;6.93;;;0.70;;
60243;SDS011;46106;51.468;5.814;2023-03-14T10:45:40;2.80;;;0.60;;
60243;SDS011;46106;51.468;5.814;2023-03-14T10:47:58;4.97;;;0.70;;
60243;SDS011;46106;51.468;5.814;2023-03-14T10:50:31;4.72;;;0.47;;
60243;SDS011;46106;51.468;5.814;2023-03-14T10:52:57;5.28;;;0.68;;
60243;SDS011;46106;51.468;5.814;2023-03-14T10:55:48;5.90;;;0.70;;
60243;SDS011;46106;51.468;5.814;2023-03-14T10:58:25;7.30;;;0.90;;
60243;SDS011;46106;51.468;5.814;2023-03-14T11:04:01;7.65;;;0.85;;
60243;SDS011;46106;51.468;5.814;2023-03-14T11:06:44;4.20;;;0.60;;
60243;SDS011;46106;51.468;5.814;2023-03-14T11:09:40;4.80;;;0.73;;
60243;SDS011;46106;51.468;5.814;2023-03-14T11:15:11;14.30;;;1.25;;
60243;SDS011;46106;51.468;5.814;2023-03-14T11:26:46;18.75;;;1.55;;
60243;SDS011;46106;51.468;5.814;2023-03-14T11:29:28;9.82;;;1.02;;
60243;SDS011;46106;51.468;5.814;2023-03-14T11:32:07;10.25;;;1.20;;
60243;SDS011;46106;51.468;5.814;2023-03-14T11:34:44;14.85;;;1.58;;
60243;SDS011;46106;51.468;5.814;2023-03-14T11:43:11;16.08;;;1.65;;
60243;SDS011;46106;51.468;5.814;2023-03-14T11:45:41;14.10;;;1.60;;
60243;SDS011;46106;51.468;5.814;2023-03-14T11:48:23;15.48;;;1.77;;
60243;SDS011;46106;51.468;5.814;2023-03-14T11:50:56;14.13;;;1.70;;
60243;SDS011;46106;51.468;5.814;2023-03-14T11:59:23;9.98;;;1.45;;
60243;SDS011;46106;51.468;5.814;2023-03-14T12:04:54;12.57;;;1.27;;
60243;SDS011;46106;51.468;5.814;2023-03-14T12:10:27;13.60;;;1.40;;
60243;SDS011;46106;51.468;5.814;2023-03-14T12:12:53;13.85;;;1.30;;
60243;SDS011;46106;51.468;5.814;2023-03-14T12:15:22;16.55;;;1.63;;
60243;SDS011;46106;51.468;5.814;2023-03-14T12:17:53;19.75;;;1.55;;
60243;SDS011;46106;51.468;5.814;2023-03-14T12:20:21;21.27;;;2.00;;
60243;SDS011;46106;51.468;5.814;2023-03-14T12:22:49;17.05;;;1.80;;
60243;SDS011;46106;51.468;5.814;2023-03-14T12:25:20;16.63;;;2.05;;
60243;SDS011;46106;51.468;5.814;2023-03-14T12:30:26;15.20;;;1.52;;
60243;SDS011;46106;51.468;5.814;2023-03-14T12:36:20;13.63;;;1.60;;
60243;SDS011;46106;51.468;5.814;2023-03-14T12:41:40;16.65;;;1.55;;
60243;SDS011;46106;51.468;5.814;2023-03-14T12:46:54;24.85;;;2.30;;
60243;SDS011;46106;51.468;5.814;2023-03-14T12:49:32;24.17;;;3.17;;
60243;SDS011;46106;51.468;5.814;2023-03-14T12:52:10;20.02;;;1.48;;
60243;SDS011;46106;51.468;5.814;2023-03-14T12:57:45;16.55;;;1.98;;
60243;SDS011;46106;51.468;5.814;2023-03-14T13:00:22;23.13;;;2.40;;
60243;SDS011;46106;51.468;5.814;2023-03-14T13:02:55;11.48;;;1.52;;
60243;SDS011;46106;51.468;5.814;2023-03-14T13:05:51;13.68;;;1.55;;
60243;SDS011;46106;51.468;5.814;2023-03-14T13:08:37;10.70;;;1.30;;
60243;SDS011;46106;51.468;5.814;2023-03-14T13:11:05;11.75;;;1.55;;
60243;SDS011;46106;51.468;5.814;2023-03-14T13:13:35;19.33;;;2.08;;
60243;SDS011;46106;51.468;5.814;2023-03-14T13:16:05;17.35;;;2.95;;
60243;SDS011;46106;51.468;5.814;2023-03-14T13:18:35;17.45;;;1.77;;
60243;SDS011;46106;51.468;5.814;2023-03-14T13:21:10;13.43;;;1.10;;
60243;SDS011;46106;51.468;5.814;2023-03-14T13:23:38;19.27;;;2.40;;
60243;SDS011;46106;51.468;5.814;2023-03-14T13:26:14;13.25;;;1.13;;
60243;SDS011;46106;51.468;5.814;2023-03-14T13:28:40;10.65;;;1.08;;
60243;SDS011;46106;51.468;5.814;2023-03-14T13:31:12;9.05;;;1.83;;
60243;SDS011;46106;51.468;5.814;2023-03-14T13:33:56;10.27;;;0.80;;
60243;SDS011;46106;51.468;5.814;2023-03-14T13:36:26;7.80;;;1.08;;
60243;SDS011;46106;51.468;5.814;2023-03-14T13:38:59;10.23;;;0.80;;
60243;SDS011;46106;51.468;5.814;2023-03-14T13:41:27;12.48;;;1.40;;
60243;SDS011;46106;51.468;5.814;2023-03-14T13:43:58;12.52;;;1.08;;
60243;SDS011;46106;51.468;5.814;2023-03-14T13:46:27;13.40;;;1.50;;
60243;SDS011;46106;51.468;5.814;2023-03-14T13:48:54;15.10;;;1.27;;
60243;SDS011;46106;51.468;5.814;2023-03-14T13:51:23;15.82;;;1.10;;
60243;SDS011;46106;51.468;5.814;2023-03-14T13:53:53;12.45;;;1.77;;
60243;SDS011;46106;51.468;5.814;2023-03-14T13:56:24;8.48;;;1.13;;
60243;SDS011;46106;51.468;5.814;2023-03-14T13:58:51;16.35;;;1.00;;
60243;SDS011;46106;51.468;5.814;2023-03-14T14:01:19;8.77;;;1.10;;
60243;SDS011;46106;51.468;5.814;2023-03-14T14:03:52;10.48;;;1.17;;
60243;SDS011;46106;51.468;5.814;2023-03-14T14:06:35;15.82;;;1.30;;
60243;SDS011;46106;51.468;5.814;2023-03-14T14:09:10;7.63;;;0.93;;
60243;SDS011;46106;51.468;5.814;2023-03-14T14:11:43;5.75;;;0.68;;
60243;SDS011;46106;51.468;5.814;2023-03-14T14:14:27;12.65;;;1.30;;
60243;SDS011;46106;51.468;5.814;2023-03-14T14:17:00;4.88;;;0.88;;
60243;SDS011;46106;51.468;5.814;2023-03-14T14:19:30;9.75;;;1.33;;
60243;SDS011;46106;51.468;5.814;2023-03-14T14:21:58;10.60;;;0.90;;
60243;SDS011;46106;51.468;5.814;2023-03-14T14:24:28;4.18;;;1.10;;
60243;SDS011;46106;51.468;5.814;2023-03-14T14:27:00;5.47;;;0.65;;
60243;SDS011;46106;51.468;5.814;2023-03-14T14:29:40;8.60;;;1.23;;
60243;SDS011;46106;51.468;5.814;2023-03-14T14:34:38;4.47;;;0.77;;
60243;SDS011;46106;51.468;5.814;2023-03-14T14:37:35;4.30;;;1.45;;
60243;SDS011;46106;51.468;5.814;2023-03-14T14:42:35;7.57;;;1.08;;
60243;SDS011;46106;51.468;5.814;2023-03-14T14:45:05;5.20;;;0.70;;
60243;SDS011;46106;51.468;5.814;2023-03-14T14:47:47;6.72;;;1.42;;
60243;SDS011;46106;51.468;5.814;2023-03-14T14:51:00;5.65;;;0.80;;
60243;SDS011;46106;51.468;5.814;2023-03-14T14:55:49;7.32;;;1.02;;
60243;SDS011;46106;51.468;5.814;2023-03-14T15:00:55;9.63;;;1.02;;
60243;SDS011;46106;51.468;5.814;2023-03-14T15:03:25;6.40;;;0.90;;
60243;SDS011;46106;51.468;5.814;2023-03-14T15:05:53;6.00;;;0.70;;
60243;SDS011;46106;51.468;5.814;2023-03-14T15:08:21;10.48;;;1.23;;
60243;SDS011;46106;51.468;5.814;2023-03-14T15:10:47;7.53;;;0.60;;
60243;SDS011;46106;51.468;5.814;2023-03-14T15:13:13;7.18;;;0.63;;
60243;SDS011;46106;51.468;5.814;2023-03-14T15:15:39;7.72;;;0.82;;
60243;SDS011;46106;51.468;5.814;2023-03-14T15:18:13;8.68;;;1.02;;
60243;SDS011;46106;51.468;5.814;2023-03-14T15:20:43;9.20;;;1.77;;
60243;SDS011;46106;51.468;5.814;2023-03-14T15:23:14;7.43;;;0.90;;
60243;SDS011;46106;51.468;5.814;2023-03-14T15:25:42;5.43;;;0.60;;
60243;SDS011;46106;51.468;5.814;2023-03-14T15:28:14;9.00;;;1.10;;
60243;SDS011;46106;51.468;5.814;2023-03-14T15:30:42;7.75;;;0.73;;
60243;SDS011;46106;51.468;5.814;2023-03-14T15:33:08;9.35;;;1.00;;
60243;SDS011;46106;51.468;5.814;2023-03-14T15:35:40;11.70;;;1.10;;
60243;SDS011;46106;51.468;5.814;2023-03-14T15:38:13;7.97;;;1.20;;
60243;SDS011;46106;51.468;5.814;2023-03-14T15:40:41;4.90;;;0.77;;
60243;SDS011;46106;51.468;5.814;2023-03-14T15:43:06;6.32;;;0.98;;
60243;SDS011;46106;51.468;5.814;2023-03-14T15:45:32;5.20;;;1.15;;
60243;SDS011;46106;51.468;5.814;2023-03-14T15:47:58;10.20;;;1.08;;
60243;SDS011;46106;51.468;5.814;2023-03-14T15:50:23;10.90;;;1.67;;
60243;SDS011;46106;51.468;5.814;2023-03-14T15:52:52;8.80;;;1.00;;
60243;SDS011;46106;51.468;5.814;2023-03-14T15:55:18;7.53;;;0.80;;
60243;SDS011;46106;51.468;5.814;2023-03-14T15:57:44;8.50;;;0.80;;
60243;SDS011;46106;51.468;5.814;2023-03-14T16:00:15;6.72;;;0.65;;
60243;SDS011;46106;51.468;5.814;2023-03-14T16:02:47;7.85;;;0.90;;
60243;SDS011;46106;51.468;5.814;2023-03-14T16:05:13;12.93;;;1.23;;
60243;SDS011;46106;51.468;5.814;2023-03-14T16:07:39;12.32;;;1.70;;